Terminal Aerodrome Forecast
Issued by NWS Lake Charles, LA

Home | Current Version | Previous Version | Text Only | Print | Product List | Glossary On
Versions: 1 2 3 4 5 6 7 8 9 10 11 12 13 14 15 16 17 18
000
FTUS44 KLCH 290806 AAA
TAFAEX
TAF AMD
KAEX 290806Z 2908/3006 15014G20KT P6SM SCT025 OVC035
     FM291000 15015G20KT P6SM OVC015
     FM291400 15018G25KT P6SM OVC025
     FM291800 16020G27KT P6SM VCSH BKN025 PROB30 2920/3002 4SM TSRA
      OVC015CB
     FM300200 15018G25KT 5SM -SHRA BR OVC015=

USA.gov is the U.S. government's official web portal to all federal, state and local government web resources and services.